createdAt,value
2022-08-07T00:00:36.678Z,101853.66
2022-08-07T00:03:08.800Z,101863.00
2022-08-07T00:05:37.161Z,101852.47
2022-08-07T00:08:04.785Z,101867.88
2022-08-07T00:10:31.724Z,101845.53
2022-08-07T00:13:02.302Z,101869.22
2022-08-07T00:15:46.366Z,101865.41
2022-08-07T00:18:23.918Z,101834.13
2022-08-07T00:20:51.336Z,101863.59
2022-08-07T00:23:18.426Z,101863.16
2022-08-07T00:25:52.536Z,101809.66
2022-08-07T00:28:33.685Z,101857.91
2022-08-07T00:31:12.395Z,101861.91
2022-08-07T00:33:43.328Z,101853.78
2022-08-07T00:36:14.312Z,101768.75
2022-08-07T00:38:40.896Z,101854.22
2022-08-07T00:41:10.055Z,101816.28
2022-08-07T00:44:01.274Z,101820.94
2022-08-07T00:46:28.465Z,101822.13
2022-08-07T00:48:55.113Z,101850.13
2022-08-07T00:51:21.695Z,101848.22
2022-08-07T00:53:50.640Z,101849.13
2022-08-07T00:56:22.632Z,101848.63
2022-08-07T00:58:49.801Z,101842.19
2022-08-07T01:01:17.147Z,101849.25
2022-08-07T01:03:56.055Z,101799.81
2022-08-07T01:06:25.873Z,101805.03
2022-08-07T01:08:53.969Z,101834.06
2022-08-07T01:12:23.708Z,101815.00
2022-08-07T01:14:09.671Z,101839.44
2022-08-07T01:16:37.046Z,101831.78
2022-08-07T01:19:18.087Z,101802.06
2022-08-07T01:21:47.132Z,101793.03
2022-08-07T01:24:14.263Z,101830.31
2022-08-07T01:26:51.544Z,101816.63
2022-08-07T01:29:19.879Z,101803.53
2022-08-07T01:31:48.655Z,101800.22
2022-08-07T01:34:17.866Z,101836.38
2022-08-07T01:36:52.434Z,101834.13
2022-08-07T01:39:39.564Z,101837.66
2022-08-07T01:42:39.015Z,101806.16
2022-08-07T01:44:54.844Z,101827.81
2022-08-07T01:48:29.260Z,101830.38
2022-08-07T01:50:09.105Z,101815.06
2022-08-07T01:52:38.785Z,101806.84
2022-08-07T01:55:10.101Z,101834.50
2022-08-07T01:58:06.445Z,101839.78
2022-08-07T02:00:45.262Z,101796.78
2022-08-07T02:03:21.501Z,101810.94
2022-08-07T02:05:59.822Z,101808.84
2022-08-07T02:08:28.144Z,101782.72
2022-08-07T02:10:58.601Z,101815.88
2022-08-07T02:13:56.820Z,101820.00
2022-08-07T02:16:14.596Z,101806.78
2022-08-07T02:18:47.075Z,101828.66
2022-08-07T02:21:16.096Z,101800.63
2022-08-07T02:23:43.879Z,101804.41
2022-08-07T02:26:32.919Z,101782.09
2022-08-07T02:28:58.561Z,101808.41
2022-08-07T02:31:28.826Z,101812.06
2022-08-07T02:34:03.523Z,101792.81
2022-08-07T02:36:32.963Z,101775.88
2022-08-07T02:39:01.889Z,101820.25
2022-08-07T02:41:37.410Z,101798.69
2022-08-07T02:44:05.012Z,101815.47
2022-08-07T02:46:34.101Z,101774.72
2022-08-07T02:49:05.311Z,101818.94
2022-08-07T02:51:42.938Z,101815.53
2022-08-07T02:54:17.897Z,101815.41
2022-08-07T02:56:46.852Z,101747.91
2022-08-07T02:59:18.644Z,101793.81
2022-08-07T03:01:52.232Z,101795.97
2022-08-07T03:04:23.210Z,101773.34
2022-08-07T03:06:52.362Z,101807.91
2022-08-07T03:09:41.886Z,101792.28
2022-08-07T03:12:08.137Z,101814.06
2022-08-07T03:14:52.125Z,101807.34
2022-08-07T03:17:19.406Z,101791.19
2022-08-07T03:19:54.431Z,101794.34
2022-08-07T03:22:22.729Z,101812.47
2022-08-07T03:24:51.149Z,101822.44
2022-08-07T03:27:30.268Z,101782.31
2022-08-07T03:29:58.125Z,101791.09
2022-08-07T03:32:34.346Z,101778.81
2022-08-07T03:35:17.450Z,101776.25
2022-08-07T03:37:54.071Z,101768.22
2022-08-07T03:40:23.190Z,101766.50
2022-08-07T03:42:54.253Z,101790.72
2022-08-07T03:45:30.877Z,101741.88
2022-08-07T03:47:59.210Z,101798.09
2022-08-07T03:50:28.374Z,101798.56
2022-08-07T03:52:58.128Z,101798.44
2022-08-07T03:55:25.015Z,101743.41
2022-08-07T03:59:05.587Z,101794.16
2022-08-07T04:01:00.494Z,101793.19
2022-08-07T04:03:27.240Z,101776.19
2022-08-07T04:05:58.898Z,101738.22
2022-08-07T04:08:26.858Z,101801.16
2022-08-07T04:12:15.586Z,101782.63
2022-08-07T04:14:10.658Z,101802.41
2022-08-07T04:16:30.202Z,101757.13
2022-08-07T04:19:03.873Z,101770.31
2022-08-07T04:21:38.887Z,101789.97
2022-08-07T04:24:10.336Z,101772.72
2022-08-07T04:26:57.995Z,101799.25
2022-08-07T04:29:24.560Z,101767.13
2022-08-07T04:32:03.262Z,101790.38
2022-08-07T04:34:39.457Z,101802.28
2022-08-07T04:37:15.209Z,101792.06
2022-08-07T04:39:47.930Z,101755.56
2022-08-07T04:42:16.523Z,101772.53
2022-08-07T04:44:54.522Z,101785.81
2022-08-07T04:48:01.190Z,101773.72
2022-08-07T04:50:57.362Z,101801.53
2022-08-07T04:54:01.185Z,101803.31
2022-08-07T04:58:14.419Z,101807.94
2022-08-07T05:00:12.066Z,101815.59
2022-08-07T05:02:38.049Z,101819.03
2022-08-07T05:05:52.650Z,101811.09
2022-08-07T05:08:09.131Z,101808.88
2022-08-07T05:10:43.770Z,101805.56
2022-08-07T05:14:55.447Z,101820.25
2022-08-07T05:16:09.212Z,101814.69
2022-08-07T05:18:41.312Z,101762.50
2022-08-07T05:21:10.008Z,101819.84
2022-08-07T05:24:02.277Z,101776.56
2022-08-07T05:26:31.171Z,101769.56
2022-08-07T05:29:00.405Z,101823.09
2022-08-07T05:31:38.561Z,101815.94
2022-08-07T05:34:11.363Z,101829.84
2022-08-07T05:36:52.583Z,101806.56
2022-08-07T05:40:05.631Z,101842.53
2022-08-07T05:42:12.547Z,101810.41
2022-08-07T05:44:41.515Z,101836.44
2022-08-07T05:47:18.029Z,101834.50
2022-08-07T05:49:49.445Z,101831.00
2022-08-07T05:52:20.287Z,101842.16
2022-08-07T05:54:55.459Z,101835.44
2022-08-07T05:57:26.766Z,101809.38
2022-08-07T06:00:00.194Z,101770.13
2022-08-07T06:02:30.646Z,101815.28
2022-08-07T06:05:03.332Z,101833.31
2022-08-07T06:08:09.288Z,101806.31
2022-08-07T06:10:18.757Z,101826.81
2022-08-07T06:12:46.978Z,101828.63
2022-08-07T06:15:16.198Z,101842.31
2022-08-07T06:17:50.845Z,101819.56
2022-08-07T06:20:25.605Z,101833.84
2022-08-07T06:23:02.297Z,101844.34
2022-08-07T06:25:54.656Z,101842.78
2022-08-07T06:28:27.452Z,101848.53
2022-08-07T06:30:55.420Z,101846.84
2022-08-07T06:33:22.927Z,101844.56
2022-08-07T06:36:06.385Z,101837.19
2022-08-07T06:38:36.093Z,101836.63
2022-08-07T06:41:07.024Z,101828.84
2022-08-07T06:43:39.463Z,101838.53
2022-08-07T06:46:11.634Z,101846.28
2022-08-07T06:48:42.005Z,101824.81
2022-08-07T06:51:15.395Z,101836.03
2022-08-07T06:54:12.064Z,101812.75
2022-08-07T06:56:49.731Z,101792.41
2022-08-07T07:00:14.596Z,101826.38
2022-08-07T07:02:49.096Z,101828.69
2022-08-07T07:05:09.404Z,101821.47
2022-08-07T07:07:59.357Z,101791.22
2022-08-07T07:10:34.972Z,101816.16
2022-08-07T07:13:07.761Z,101817.53
2022-08-07T07:15:44.766Z,101822.31
2022-08-07T07:18:47.922Z,101825.81
2022-08-07T07:21:19.372Z,101817.59
2022-08-07T07:24:05.554Z,101794.03
2022-08-07T07:26:37.234Z,101796.66
2022-08-07T07:29:55.911Z,101813.00
2022-08-07T07:31:56.814Z,101785.47
2022-08-07T07:34:31.009Z,101754.88
2022-08-07T07:37:05.605Z,101807.47
2022-08-07T07:39:52.149Z,101782.81
2022-08-07T07:42:33.093Z,101798.56
2022-08-07T07:45:04.760Z,101799.63
2022-08-07T07:47:51.945Z,101781.69
2022-08-07T07:50:35.772Z,101799.31
2022-08-07T07:53:06.366Z,101765.22
2022-08-07T07:55:54.744Z,101777.69
2022-08-07T07:58:26.437Z,101797.66
2022-08-07T08:00:55.441Z,101767.44
2022-08-07T08:04:09.411Z,101791.25
2022-08-07T08:06:11.555Z,101793.91
2022-08-07T08:08:41.940Z,101791.91
2022-08-07T08:11:16.118Z,101786.50
2022-08-07T08:13:54.348Z,101789.50
2022-08-07T08:16:35.217Z,101792.75
2022-08-07T08:19:09.873Z,101792.50
2022-08-07T08:22:07.922Z,101754.53
2022-08-07T08:25:09.447Z,101778.63
2022-08-07T08:27:56.732Z,101782.03
2022-08-07T08:30:25.075Z,101758.03
2022-08-07T08:32:57.492Z,101762.41
2022-08-07T08:35:28.723Z,101776.41
2022-08-07T08:38:04.755Z,101752.19
2022-08-07T08:40:39.514Z,101772.66
2022-08-07T08:43:42.359Z,101771.41
2022-08-07T08:46:14.435Z,101774.81
2022-08-07T08:48:51.706Z,101756.25
2022-08-07T08:51:49.949Z,101765.50
2022-08-07T08:54:30.511Z,101736.97
2022-08-07T08:56:58.542Z,101762.03
2022-08-07T08:59:50.998Z,101731.53
2022-08-07T09:02:36.402Z,101751.72
2022-08-07T09:05:24.951Z,101742.09
2022-08-07T09:08:24.332Z,101726.78
2022-08-07T09:11:24.765Z,101742.09
2022-08-07T09:14:13.445Z,101750.28
2022-08-07T09:16:47.630Z,101748.78
2022-08-07T09:19:52.852Z,101748.66
2022-08-07T09:24:32.968Z,101729.59
2022-08-07T09:25:34.279Z,101743.13
2022-08-07T09:30:02.017Z,101713.16
2022-08-07T09:31:15.410Z,101737.53
2022-08-07T09:34:15.899Z,101722.50
2022-08-07T09:36:59.271Z,101723.28
2022-08-07T09:39:55.024Z,101708.78
2022-08-07T09:42:54.712Z,101706.03
2022-08-07T09:47:51.765Z,101698.03
2022-08-07T09:49:09.439Z,101697.94
2022-08-07T09:52:16.190Z,101697.13
2022-08-07T09:54:39.493Z,101698.66
2022-08-07T09:57:15.470Z,101699.81
2022-08-07T10:00:04.117Z,101674.72
2022-08-07T10:03:07.888Z,101688.53
2022-08-07T10:06:04.479Z,101671.63
2022-08-07T10:08:58.906Z,101681.06
2022-08-07T10:12:02.288Z,101665.16
2022-08-07T10:14:54.936Z,101640.69
2022-08-07T10:18:00.868Z,101664.31
2022-08-07T10:21:02.790Z,101651.50
2022-08-07T10:24:05.476Z,101654.06
2022-08-07T10:26:37.039Z,101651.53
2022-08-07T10:29:25.309Z,101658.13
2022-08-07T10:32:06.195Z,101648.75
2022-08-07T10:35:55.812Z,101660.00
2022-08-07T10:38:35.812Z,101640.69
2022-08-07T10:41:46.395Z,101641.69
2022-08-07T10:44:15.885Z,101648.19
2022-08-07T10:47:03.527Z,101643.00
2022-08-07T10:49:49.605Z,101629.03
2022-08-07T10:52:51.208Z,101628.41
2022-08-07T10:55:37.075Z,101621.94
2022-08-07T10:58:36.407Z,101605.75
2022-08-07T11:01:11.745Z,101613.75
2022-08-07T11:03:52.763Z,101602.50
2022-08-07T11:06:28.342Z,101608.00
2022-08-07T11:09:02.248Z,101604.13
2022-08-07T11:11:35.661Z,101597.22
2022-08-07T11:15:00.318Z,101577.63
2022-08-07T11:17:45.734Z,101589.41
2022-08-07T11:20:35.609Z,101588.13
2022-08-07T11:23:12.330Z,101588.63
2022-08-07T11:26:13.069Z,101591.28
2022-08-07T11:28:51.367Z,101579.66
2022-08-07T11:32:08.744Z,101580.47
2022-08-07T11:34:46.050Z,101559.03
2022-08-07T11:37:58.429Z,101566.00
2022-08-07T11:40:51.760Z,101564.16
2022-08-07T11:43:41.498Z,101544.91
2022-08-07T11:46:55.413Z,101564.28
2022-08-07T11:50:30.073Z,101560.56
2022-08-07T11:52:54.156Z,101571.06
2022-08-07T11:56:12.038Z,101573.22
2022-08-07T12:00:12.325Z,101560.53
2022-08-07T12:02:30.463Z,101564.28
2022-08-07T12:05:15.310Z,101549.22
2022-08-07T12:08:04.056Z,101544.31
2022-08-07T12:10:30.847Z,101558.53
2022-08-07T12:13:11.508Z,101549.31
2022-08-07T12:16:05.808Z,101531.78
2022-08-07T12:18:45.149Z,101544.06
2022-08-07T12:21:55.911Z,101537.88
2022-08-07T12:24:37.662Z,101547.78
2022-08-07T12:27:16.938Z,101534.44
2022-08-07T12:29:51.531Z,101560.63
2022-08-07T12:32:30.467Z,101563.09
2022-08-07T12:34:58.298Z,101556.84
2022-08-07T12:37:28.503Z,101542.16
2022-08-07T12:40:36.377Z,101521.84
2022-08-07T12:43:09.203Z,101543.47
2022-08-07T12:45:52.744Z,101550.81
2022-08-07T12:48:52.844Z,101552.63
2022-08-07T12:51:21.850Z,101554.69
2022-08-07T12:54:02.713Z,101560.09
2022-08-07T12:56:51.498Z,101519.84
2022-08-07T12:59:30.439Z,101544.72
2022-08-07T13:02:30.991Z,101557.88
2022-08-07T13:05:14.682Z,101556.16
2022-08-07T13:08:19.395Z,101551.00
2022-08-07T13:10:56.842Z,101555.25
2022-08-07T13:14:23.745Z,101517.69
2022-08-07T13:17:12.236Z,101534.50
2022-08-07T13:19:52.766Z,101534.91
2022-08-07T13:22:37.298Z,101528.47
2022-08-07T13:25:23.985Z,101539.22
2022-08-07T13:28:10.952Z,101530.31
2022-08-07T13:30:52.298Z,101533.16
2022-08-07T13:34:30.666Z,101527.81
2022-08-07T13:36:39.916Z,101511.44
2022-08-07T13:40:33.147Z,101517.41
2022-08-07T13:42:21.647Z,101515.19
2022-08-07T13:45:20.936Z,101506.88
2022-08-07T13:48:05.880Z,101511.72
2022-08-07T13:50:33.063Z,101513.59
2022-08-07T13:53:04.048Z,101515.22
2022-08-07T13:55:36.891Z,101498.81
2022-08-07T13:58:31.456Z,101496.03
2022-08-07T14:01:09.952Z,101502.91
2022-08-07T14:04:07.236Z,101489.19
2022-08-07T14:06:36.172Z,101467.97
2022-08-07T14:09:05.192Z,101470.47
2022-08-07T14:11:53.621Z,101495.22
2022-08-07T14:14:33.188Z,101484.50
2022-08-07T14:17:51.414Z,101452.88
2022-08-07T14:20:43.596Z,101481.25
2022-08-07T14:22:46.441Z,101448.22
2022-08-07T14:25:15.973Z,101481.59
2022-08-07T14:28:19.941Z,101471.13
2022-08-07T14:30:37.630Z,101470.44
2022-08-07T14:33:08.508Z,101442.69
2022-08-07T14:35:45.807Z,101472.81
2022-08-07T14:38:24.546Z,101455.22
2022-08-07T14:40:58.970Z,101466.13
2022-08-07T14:46:17.674Z,101465.91
2022-08-07T14:48:48.382Z,101468.13
2022-08-07T14:51:27.254Z,101445.50
2022-08-07T14:54:33.052Z,101455.88
2022-08-07T14:57:04.131Z,101448.03
2022-08-07T15:00:04.353Z,101443.50
2022-08-07T15:08:05.129Z,101449.72
2022-08-07T15:10:58.656Z,101450.28
2022-08-07T15:13:26.839Z,101438.34
2022-08-07T15:16:11.076Z,101452.69
2022-08-07T15:18:43.576Z,101444.44
2022-08-07T15:21:58.706Z,101417.81
2022-08-07T15:25:12.824Z,101438.28
2022-08-07T15:27:06.193Z,101446.81
2022-08-07T15:32:39.841Z,101406.94
2022-08-07T15:35:13.312Z,101427.19
2022-08-07T15:40:34.332Z,101420.88
2022-08-07T15:43:10.565Z,101447.56
2022-08-07T15:46:03.538Z,101401.91
2022-08-07T15:48:37.143Z,101402.72
2022-08-07T15:54:12.361Z,101429.97
2022-08-07T15:56:41.521Z,101407.06
2022-08-07T15:59:16.277Z,101426.91
2022-08-07T16:02:01.866Z,101430.31
2022-08-07T16:04:32.051Z,101428.56
2022-08-07T16:07:00.591Z,101432.41
2022-08-07T16:09:41.926Z,101426.31
2022-08-07T16:12:33.833Z,101423.56
2022-08-07T16:15:58.184Z,101424.63
2022-08-07T16:18:50.005Z,101394.66
2022-08-07T16:22:02.223Z,101421.25
2022-08-07T16:24:52.739Z,101394.59
2022-08-07T16:27:39.990Z,101392.16
2022-08-07T16:30:30.277Z,101424.44
2022-08-07T16:34:02.994Z,101410.00
2022-08-07T16:37:02.820Z,101422.81
2022-08-07T16:39:48.971Z,101388.34
2022-08-07T16:42:37.429Z,101418.06
2022-08-07T16:46:21.070Z,101414.47
2022-08-07T16:48:53.817Z,101417.69
2022-08-07T16:51:54.507Z,101413.59
2022-08-07T16:54:55.038Z,101417.19
2022-08-07T16:58:02.575Z,101412.59
2022-08-07T17:00:29.987Z,101405.88
2022-08-07T17:03:19.263Z,101416.84
2022-08-07T17:06:31.324Z,101411.19
2022-08-07T17:09:10.651Z,101415.03
2022-08-07T17:12:04.725Z,101395.69
2022-08-07T17:14:41.537Z,101415.66
2022-08-07T17:17:46.600Z,101387.19
2022-08-07T17:20:37.487Z,101418.88
2022-08-07T17:23:22.638Z,101409.84
2022-08-07T17:26:23.557Z,101419.81
2022-08-07T17:29:04.950Z,101416.53
2022-08-07T17:32:03.106Z,101401.88
2022-08-07T17:35:02.682Z,101420.72
2022-08-07T17:38:09.441Z,101414.88
2022-08-07T17:40:34.725Z,101407.38
2022-08-07T17:43:17.793Z,101419.28
2022-08-07T17:45:55.466Z,101402.31
2022-08-07T17:48:32.324Z,101415.28
2022-08-07T17:51:21.276Z,101391.41
2022-08-07T17:54:06.444Z,101401.03
2022-08-07T17:56:49.793Z,101410.91
2022-08-07T17:59:24.303Z,101420.34
2022-08-07T18:01:58.048Z,101405.03
2022-08-07T18:04:37.732Z,101408.56
2022-08-07T18:07:20.199Z,101423.72
2022-08-07T18:10:06.370Z,101426.81
2022-08-07T18:13:06.830Z,101427.47
2022-08-07T18:15:53.705Z,101432.91
2022-08-07T18:18:47.361Z,101437.31
2022-08-07T18:21:37.234Z,101440.41
2022-08-07T18:24:28.450Z,101316.66
2022-08-07T18:27:22.951Z,101441.41
2022-08-07T18:30:06.534Z,101360.38
2022-08-07T18:33:15.210Z,101445.16
2022-08-07T18:36:16.176Z,101440.25
2022-08-07T18:40:05.736Z,101448.41
2022-08-07T18:42:11.949Z,101453.72
2022-08-07T18:48:01.503Z,101453.69
2022-08-07T18:50:47.405Z,101455.28
2022-08-07T18:53:36.730Z,101456.13
2022-08-07T18:56:35.255Z,101463.78
2022-08-07T18:59:10.214Z,101479.88
2022-08-07T19:02:36.658Z,101479.91
2022-08-07T19:05:21.604Z,101482.94
2022-08-07T19:08:03.786Z,101484.50
2022-08-07T19:10:51.467Z,101453.59
2022-08-07T19:13:50.168Z,101489.91
2022-08-07T19:17:00.489Z,101495.28
2022-08-07T19:19:50.955Z,101503.41
2022-08-07T19:22:36.161Z,101504.50
2022-08-07T19:25:06.454Z,101487.56
2022-08-07T19:30:54.480Z,101511.00
2022-08-07T19:31:01.704Z,101471.84
2022-08-07T19:33:13.177Z,101480.63
2022-08-07T19:35:44.470Z,101511.78
2022-08-07T19:38:15.959Z,101485.47
2022-08-07T19:40:50.699Z,101512.81
2022-08-07T19:43:44.128Z,101518.38
2022-08-07T19:46:17.751Z,101522.25
2022-08-07T19:48:54.497Z,101493.34
2022-08-07T19:51:50.978Z,101507.94
2022-08-07T19:54:32.522Z,101524.75
2022-08-07T19:58:03.204Z,101494.34
2022-08-07T19:59:54.188Z,101518.47
2022-08-07T20:02:52.008Z,101473.41
2022-08-07T20:05:22.235Z,101533.81
2022-08-07T20:07:50.905Z,101492.94
2022-08-07T20:10:36.966Z,101515.38
2022-08-07T20:13:23.780Z,101518.94
2022-08-07T20:15:57.564Z,101522.41
2022-08-07T20:18:32.709Z,101493.69
2022-08-07T20:21:03.462Z,101528.94
2022-08-07T20:23:48.382Z,101513.44
2022-08-07T20:26:32.233Z,101516.63
2022-08-07T20:29:01.596Z,101528.38
2022-08-07T20:31:38.332Z,101505.66
2022-08-07T20:34:05.961Z,101529.78
2022-08-07T20:36:33.740Z,101501.75
2022-08-07T20:39:11.680Z,101469.47
2022-08-07T20:41:53.305Z,101491.41
2022-08-07T20:44:29.016Z,101527.63
2022-08-07T20:47:05.593Z,101504.19
2022-08-07T20:49:59.098Z,101508.34
2022-08-07T20:52:50.672Z,101536.78
2022-08-07T20:55:23.810Z,101538.16
2022-08-07T20:58:03.702Z,101534.09
2022-08-07T21:00:44.390Z,101536.78
2022-08-07T21:03:19.202Z,101547.13
2022-08-07T21:06:25.764Z,101548.41
2022-08-07T21:09:15.099Z,101542.88
2022-08-07T21:11:50.210Z,101542.00
2022-08-07T21:14:32.620Z,101546.41
2022-08-07T21:18:01.265Z,101552.06
2022-08-07T21:20:04.483Z,101550.16
2022-08-07T21:22:53.543Z,101553.84
2022-08-07T21:25:29.070Z,101554.63
2022-08-07T21:28:19.102Z,101557.38
2022-08-07T21:31:49.813Z,101560.03
2022-08-07T21:34:32.315Z,101563.38
2022-08-07T21:37:21.503Z,101554.91
2022-08-07T21:40:00.817Z,101556.78
2022-08-07T21:42:55.850Z,101567.75
2022-08-07T21:46:08.712Z,101567.97
2022-08-07T21:49:00.389Z,101574.38
2022-08-07T21:51:51.320Z,101572.00
2022-08-07T21:54:38.560Z,101574.19
2022-08-07T21:57:39.581Z,101577.53
2022-08-07T22:00:23.005Z,101586.88
2022-08-07T22:03:08.870Z,101586.03
2022-08-07T22:06:04.396Z,101585.19
2022-08-07T22:08:39.205Z,101587.88
2022-08-07T22:11:06.117Z,101562.22
2022-08-07T22:13:52.233Z,101589.41
2022-08-07T22:16:41.671Z,101589.16
2022-08-07T22:19:30.115Z,101588.69
2022-08-07T22:22:01.846Z,101589.00
2022-08-07T22:24:40.103Z,101592.88
2022-08-07T22:27:18.661Z,101561.47
2022-08-07T22:29:54.310Z,101592.66
2022-08-07T22:32:33.526Z,101582.56
2022-08-07T22:35:02.128Z,101593.91
2022-08-07T22:38:03.693Z,101592.44
2022-08-07T22:40:52.706Z,101583.47
2022-08-07T22:43:43.512Z,101593.78
2022-08-07T22:47:04.520Z,101593.97
2022-08-07T22:49:54.039Z,101590.91
2022-08-07T22:52:36.825Z,101593.28
2022-08-07T22:55:32.604Z,101592.59
2022-08-07T22:58:06.817Z,101592.09
2022-08-07T23:00:51.111Z,101593.28
2022-08-07T23:03:58.340Z,101597.00
2022-08-07T23:06:51.728Z,101596.66
2022-08-07T23:10:06.206Z,101594.41
2022-08-07T23:12:53.083Z,101605.94
2022-08-07T23:15:22.085Z,101597.31
2022-08-07T23:18:26.805Z,101598.63
2022-08-07T23:21:29.938Z,101603.97
2022-08-07T23:24:50.455Z,101598.94
2022-08-07T23:27:34.122Z,101558.25
2022-08-07T23:30:38.976Z,101601.25
2022-08-07T23:34:34.210Z,101594.31
2022-08-07T23:37:17.562Z,101599.25
2022-08-07T23:39:59.607Z,101606.00
2022-08-07T23:42:53.402Z,101597.41
2022-08-07T23:45:33.564Z,101607.81
2022-08-07T23:48:19.242Z,101606.16
2022-08-07T23:50:58.134Z,101586.41
2022-08-07T23:53:50.964Z,101600.88
2022-08-07T23:56:38.980Z,101567.34
